sensor_id;sensor_type;location;lat;lon;timestamp;pressure;altitude;pressure_sealevel;temperature;humidity
51259;BME280;37327;54.254;18.504;2023-04-07T00:02:02;101420.81;;;2.67;100.00
51259;BME280;37327;54.254;18.504;2023-04-07T00:05:19;101423.27;;;2.70;100.00
51259;BME280;37327;54.254;18.504;2023-04-07T00:08:36;101415.17;;;2.72;100.00
51259;BME280;37327;54.254;18.504;2023-04-07T00:11:54;101405.34;;;2.72;100.00
51259;BME280;37327;54.254;18.504;2023-04-07T00:15:12;101409.94;;;2.70;100.00
51259;BME280;37327;54.254;18.504;2023-04-07T00:18:29;101399.28;;;2.70;100.00
51259;BME280;37327;54.254;18.504;2023-04-07T00:21:47;101396.51;;;2.72;100.00
51259;BME280;37327;54.254;18.504;2023-04-07T00:25:05;101394.78;;;2.71;100.00
51259;BME280;37327;54.254;18.504;2023-04-07T00:28:23;101394.48;;;2.75;100.00
51259;BME280;37327;54.254;18.504;2023-04-07T00:31:40;101395.42;;;2.74;100.00
51259;BME280;37327;54.254;18.504;2023-04-07T00:34:58;101397.98;;;2.76;100.00
51259;BME280;37327;54.254;18.504;2023-04-07T00:38:16;101391.57;;;2.79;100.00
51259;BME280;37327;54.254;18.504;2023-04-07T00:41:34;101387.96;;;2.80;100.00
51259;BME280;37327;54.254;18.504;2023-04-07T00:44:52;101391.57;;;2.79;100.00
51259;BME280;37327;54.254;18.504;2023-04-07T00:48:09;101379.22;;;2.78;100.00
51259;BME280;37327;54.254;18.504;2023-04-07T00:51:27;101378.24;;;2.79;100.00
51259;BME280;37327;54.254;18.504;2023-04-07T00:54:45;101380.80;;;2.80;100.00
51259;BME280;37327;54.254;18.504;2023-04-07T00:58:03;101373.74;;;2.79;100.00
51259;BME280;37327;54.254;18.504;2023-04-07T01:01:29;101370.24;;;2.79;100.00
51259;BME280;37327;54.254;18.504;2023-04-07T01:08:23;101361.50;;;2.76;100.00
51259;BME280;37327;54.254;18.504;2023-04-07T01:15:14;101361.50;;;2.76;100.00
51259;BME280;37327;54.254;18.504;2023-04-07T01:18:32;101356.06;;;2.78;100.00
51259;BME280;37327;54.254;18.504;2023-04-07T01:21:52;101356.59;;;2.83;100.00
51259;BME280;37327;54.254;18.504;2023-04-07T01:25:25;101351.27;;;2.83;100.00
51259;BME280;37327;54.254;18.504;2023-04-07T01:32:17;101353.16;;;2.81;100.00
51259;BME280;37327;54.254;18.504;2023-04-07T01:35:38;101347.62;;;2.84;100.00
51259;BME280;37327;54.254;18.504;2023-04-07T01:38:58;101351.76;;;2.88;100.00
51259;BME280;37327;54.254;18.504;2023-04-07T01:42:18;101351.86;;;2.87;100.00
51259;BME280;37327;54.254;18.504;2023-04-07T01:45:36;101352.74;;;2.87;100.00
51259;BME280;37327;54.254;18.504;2023-04-07T01:48:55;101348.24;;;2.88;100.00
51259;BME280;37327;54.254;18.504;2023-04-07T01:52:13;101344.60;;;2.89;100.00
51259;BME280;37327;54.254;18.504;2023-04-07T01:55:32;101346.42;;;2.88;100.00
51259;BME280;37327;54.254;18.504;2023-04-07T01:58:50;101348.24;;;2.88;100.00
51259;BME280;37327;54.254;18.504;2023-04-07T02:02:07;101348.35;;;2.86;100.00
51259;BME280;37327;54.254;18.504;2023-04-07T02:05:27;101342.91;;;2.88;100.00
51259;BME280;37327;54.254;18.504;2023-04-07T02:08:48;101347.05;;;2.92;100.00
51259;BME280;37327;54.254;18.504;2023-04-07T02:12:08;101349.63;;;2.93;100.00
51259;BME280;37327;54.254;18.504;2023-04-07T02:15:29;101353.02;;;2.95;100.00
51259;BME280;37327;54.254;18.504;2023-04-07T02:18:50;101356.75;;;2.93;100.00
51259;BME280;37327;54.254;18.504;2023-04-07T02:22:10;101356.88;;;2.91;100.00
51259;BME280;37327;54.254;18.504;2023-04-07T02:25:29;101351.41;;;2.93;100.00
51259;BME280;37327;54.254;18.504;2023-04-07T02:28:47;101348.43;;;2.98;100.00
51259;BME280;37327;54.254;18.504;2023-04-07T02:32:05;101351.84;;;3.00;100.00
51259;BME280;37327;54.254;18.504;2023-04-07T02:35:22;101343.94;;;2.98;100.00
51259;BME280;37327;54.254;18.504;2023-04-07T02:38:40;101343.09;;;2.98;100.00
51259;BME280;37327;54.254;18.504;2023-04-07T02:41:57;101343.09;;;2.98;100.00
51259;BME280;37327;54.254;18.504;2023-04-07T02:45:14;101334.99;;;2.99;100.00
51259;BME280;37327;54.254;18.504;2023-04-07T02:48:31;101330.38;;;3.01;100.00
51259;BME280;37327;54.254;18.504;2023-04-07T02:51:49;101331.13;;;3.03;100.00
51259;BME280;37327;54.254;18.504;2023-04-07T02:55:07;101340.32;;;2.99;100.00
51259;BME280;37327;54.254;18.504;2023-04-07T02:58:25;101335.84;;;3.00;100.00
51259;BME280;37327;54.254;18.504;2023-04-07T03:01:42;101327.73;;;3.01;100.00
51259;BME280;37327;54.254;18.504;2023-04-07T03:05:00;101327.73;;;3.01;100.00
51259;BME280;37327;54.254;18.504;2023-04-07T03:08:20;101325.27;;;2.98;100.00
51259;BME280;37327;54.254;18.504;2023-04-07T03:11:37;101334.11;;;2.99;100.00
51259;BME280;37327;54.254;18.504;2023-04-07T03:14:52;101336.68;;;3.00;100.00
51259;BME280;37327;54.254;18.504;2023-04-07T03:18:09;101323.58;;;2.97;100.00
51259;BME280;37327;54.254;18.504;2023-04-07T03:21:27;101326.25;;;2.97;100.00
51259;BME280;37327;54.254;18.504;2023-04-07T03:24:44;101335.94;;;2.98;100.00
51259;BME280;37327;54.254;18.504;2023-04-07T03:28:02;101329.65;;;2.99;100.00
51259;BME280;37327;54.254;18.504;2023-04-07T03:31:19;101331.34;;;3.00;100.00
51259;BME280;37327;54.254;18.504;2023-04-07T03:34:37;101335.84;;;3.00;100.00
51259;BME280;37327;54.254;18.504;2023-04-07T03:37:54;101337.41;;;3.02;100.00
51259;BME280;37327;54.254;18.504;2023-04-07T03:41:12;101348.09;;;3.02;100.00
51259;BME280;37327;54.254;18.504;2023-04-07T03:44:29;101339.13;;;3.03;100.00
51259;BME280;37327;54.254;18.504;2023-04-07T03:47:46;101336.46;;;3.03;100.00
51259;BME280;37327;54.254;18.504;2023-04-07T03:51:04;101331.13;;;3.03;100.00
51259;BME280;37327;54.254;18.504;2023-04-07T03:54:21;101332.07;;;3.02;100.00
51259;BME280;37327;54.254;18.504;2023-04-07T03:57:39;101339.13;;;3.03;100.00
51259;BME280;37327;54.254;18.504;2023-04-07T04:00:57;101335.27;;;3.07;100.00
51259;BME280;37327;54.254;18.504;2023-04-07T04:04:14;101337.09;;;3.07;100.00
51259;BME280;37327;54.254;18.504;2023-04-07T04:07:31;101337.94;;;3.07;100.00
51259;BME280;37327;54.254;18.504;2023-04-07T04:10:49;101329.20;;;3.05;100.00
51259;BME280;37327;54.254;18.504;2023-04-07T04:14:08;101339.63;;;3.08;100.00
51259;BME280;37327;54.254;18.504;2023-04-07T04:17:25;101332.36;;;3.10;100.00
51259;BME280;37327;54.254;18.504;2023-04-07T04:20:42;101329.84;;;3.09;100.00
51259;BME280;37327;54.254;18.504;2023-04-07T04:24:00;101333.23;;;3.11;100.00
51259;BME280;37327;54.254;18.504;2023-04-07T04:27:18;101340.36;;;3.10;100.00
51259;BME280;37327;54.254;18.504;2023-04-07T04:30:35;101338.44;;;3.12;100.00
51259;BME280;37327;54.254;18.504;2023-04-07T04:33:53;101341.87;;;3.14;100.00
51259;BME280;37327;54.254;18.504;2023-04-07T04:37:10;101344.54;;;3.14;100.00
51259;BME280;37327;54.254;18.504;2023-04-07T04:40:28;101337.27;;;3.16;100.00
51259;BME280;37327;54.254;18.504;2023-04-07T04:43:45;101337.27;;;3.16;100.00
51259;BME280;37327;54.254;18.504;2023-04-07T04:47:02;101315.04;;;3.16;100.00
51259;BME280;37327;54.254;18.504;2023-04-07T04:50:19;101314.30;;;3.14;100.00
51259;BME280;37327;54.254;18.504;2023-04-07T04:53:37;101310.06;;;3.11;100.00
51259;BME280;37327;54.254;18.504;2023-04-07T04:56:54;101300.34;;;3.10;100.00
51259;BME280;37327;54.254;18.504;2023-04-07T05:00:14;101297.47;;;3.13;100.00
51259;BME280;37327;54.254;18.504;2023-04-07T05:03:31;101301.95;;;3.13;100.00
51259;BME280;37327;54.254;18.504;2023-04-07T05:06:48;101310.80;;;3.13;100.00
51259;BME280;37327;54.254;18.504;2023-04-07T05:10:07;101318.80;;;3.13;100.00
51259;BME280;37327;54.254;18.504;2023-04-07T05:13:25;101320.52;;;3.14;100.00
51259;BME280;37327;54.254;18.504;2023-04-07T05:16:42;101322.21;;;3.15;100.00
51259;BME280;37327;54.254;18.504;2023-04-07T05:19:59;101314.10;;;3.17;100.00
51259;BME280;37327;54.254;18.504;2023-04-07T05:23:16;101308.65;;;3.19;100.00
51259;BME280;37327;54.254;18.504;2023-04-07T05:26:33;101313.25;;;3.16;100.00
51259;BME280;37327;54.254;18.504;2023-04-07T05:29:51;101328.06;;;3.21;100.00
51259;BME280;37327;54.254;18.504;2023-04-07T05:33:08;101328.91;;;3.21;100.00
51259;BME280;37327;54.254;18.504;2023-04-07T05:36:26;101335.09;;;3.22;100.00
51259;BME280;37327;54.254;18.504;2023-04-07T05:39:43;101336.56;;;3.26;100.00
51259;BME280;37327;54.254;18.504;2023-04-07T05:43:01;101338.27;;;3.27;100.00
51259;BME280;37327;54.254;18.504;2023-04-07T05:46:18;101353.30;;;3.28;100.00
51259;BME280;37327;54.254;18.504;2023-04-07T05:49:35;101347.55;;;3.34;100.00
51259;BME280;37327;54.254;18.504;2023-04-07T05:52:52;101337.71;;;3.34;100.00
51259;BME280;37327;54.254;18.504;2023-04-07T05:56:10;101337.82;;;3.33;100.00
51259;BME280;37327;54.254;18.504;2023-04-07T05:59:27;101334.52;;;3.29;100.00
51259;BME280;37327;54.254;18.504;2023-04-07T06:02:44;101336.10;;;3.32;100.00
51259;BME280;37327;54.254;18.504;2023-04-07T06:06:02;101343.16;;;3.33;100.00
51259;BME280;37327;54.254;18.504;2023-04-07T06:09:20;101330.65;;;3.33;100.00
51259;BME280;37327;54.254;18.504;2023-04-07T06:12:38;101351.69;;;3.38;100.00
51259;BME280;37327;54.254;18.504;2023-04-07T06:15:55;101349.50;;;3.43;100.00
51259;BME280;37327;54.254;18.504;2023-04-07T06:19:12;101352.80;;;3.47;100.00
51259;BME280;37327;54.254;18.504;2023-04-07T06:22:29;101354.27;;;3.51;100.00
51259;BME280;37327;54.254;18.504;2023-04-07T06:25:47;101356.94;;;3.51;100.00
51259;BME280;37327;54.254;18.504;2023-04-07T06:29:08;101360.35;;;3.53;100.00
51259;BME280;37327;54.254;18.504;2023-04-07T06:32:26;101354.67;;;3.58;100.00
51259;BME280;37327;54.254;18.504;2023-04-07T06:35:44;101355.41;;;3.60;100.00
51259;BME280;37327;54.254;18.504;2023-04-07T06:39:02;101354.21;;;3.64;100.00
51259;BME280;37327;54.254;18.504;2023-04-07T06:42:21;101358.10;;;3.71;100.00
51259;BME280;37327;54.254;18.504;2023-04-07T06:45:38;101359.59;;;3.75;100.00
51259;BME280;37327;54.254;18.504;2023-04-07T06:48:55;101358.50;;;3.78;100.00
51259;BME280;37327;54.254;18.504;2023-04-07T06:52:12;101365.89;;;3.74;100.00
51259;BME280;37327;54.254;18.504;2023-04-07T06:55:29;101366.84;;;3.73;100.00
51259;BME280;37327;54.254;18.504;2023-04-07T06:58:47;101355.09;;;3.75;100.00
51259;BME280;37327;54.254;18.504;2023-04-07T07:02:04;101354.98;;;3.77;100.00
51259;BME280;37327;54.254;18.504;2023-04-07T07:05:23;101359.59;;;3.75;100.00
51259;BME280;37327;54.254;18.504;2023-04-07T07:08:41;101361.50;;;3.73;100.00
51259;BME280;37327;54.254;18.504;2023-04-07T07:11:59;101363.59;;;3.81;100.00
51259;BME280;37327;54.254;18.504;2023-04-07T07:15:18;101362.64;;;3.82;100.00
51259;BME280;37327;54.254;18.504;2023-04-07T07:18:35;101365.30;;;3.82;100.00
51259;BME280;37327;54.254;18.504;2023-04-07T07:21:53;101367.87;;;3.83;100.00
51259;BME280;37327;54.254;18.504;2023-04-07T07:25:13;101362.53;;;3.83;100.00
51259;BME280;37327;54.254;18.504;2023-04-07T07:28:32;101359.38;;;3.89;100.00
51259;BME280;37327;54.254;18.504;2023-04-07T07:31:50;101365.57;;;3.90;100.00
51259;BME280;37327;54.254;18.504;2023-04-07T07:35:08;101361.07;;;3.90;100.00
51259;BME280;37327;54.254;18.504;2023-04-07T07:38:25;101362.43;;;3.96;100.00
51259;BME280;37327;54.254;18.504;2023-04-07T07:41:43;101358.44;;;4.02;100.00
51259;BME280;37327;54.254;18.504;2023-04-07T07:45:02;101353.34;;;4.10;100.00
51259;BME280;37327;54.254;18.504;2023-04-07T07:48:20;101345.72;;;4.17;100.00
51259;BME280;37327;54.254;18.504;2023-04-07T07:51:37;101357.98;;;4.19;100.00
51259;BME280;37327;54.254;18.504;2023-04-07T07:54:54;101361.99;;;4.25;100.00
51259;BME280;37327;54.254;18.504;2023-04-07T07:58:13;101361.15;;;4.24;100.00
51259;BME280;37327;54.254;18.504;2023-04-07T08:01:30;101353.38;;;4.32;100.00
51259;BME280;37327;54.254;18.504;2023-04-07T08:04:48;101357.28;;;4.40;100.00
51259;BME280;37327;54.254;18.504;2023-04-07T08:08:05;101367.59;;;4.44;100.00
51259;BME280;37327;54.254;18.504;2023-04-07T08:11:23;101368.70;;;4.42;100.00
51259;BME280;37327;54.254;18.504;2023-04-07T08:14:41;101369.77;;;4.39;100.00
51259;BME280;37327;54.254;18.504;2023-04-07T08:17:58;101374.16;;;4.40;100.00
51259;BME280;37327;54.254;18.504;2023-04-07T08:21:18;101370.16;;;4.46;100.00
51259;BME280;37327;54.254;18.504;2023-04-07T08:24:37;101374.30;;;4.50;100.00
51259;BME280;37327;54.254;18.504;2023-04-07T08:27:55;101364.81;;;4.57;100.00
51259;BME280;37327;54.254;18.504;2023-04-07T08:31:12;101373.30;;;4.62;100.00
51259;BME280;37327;54.254;18.504;2023-04-07T08:34:29;101367.62;;;4.67;100.00
51259;BME280;37327;54.254;18.504;2023-04-07T08:37:46;101373.92;;;4.77;100.00
51259;BME280;37327;54.254;18.504;2023-04-07T08:41:12;101379.01;;;4.80;100.00
51259;BME280;37327;54.254;18.504;2023-04-07T08:44:35;101371.86;;;4.81;100.00
51259;BME280;37327;54.254;18.504;2023-04-07T08:47:55;101367.59;;;4.78;100.00
51259;BME280;37327;54.254;18.504;2023-04-07T08:51:14;101370.13;;;4.80;100.00
51259;BME280;37327;54.254;18.504;2023-04-07T08:54:34;101364.91;;;4.78;100.00
51259;BME280;37327;54.254;18.504;2023-04-07T08:57:53;101363.69;;;4.82;100.00
51259;BME280;37327;54.254;18.504;2023-04-07T09:01:12;101374.77;;;4.78;100.00
51259;BME280;37327;54.254;18.504;2023-04-07T09:04:31;101364.55;;;4.83;100.00
51259;BME280;37327;54.254;18.504;2023-04-07T09:07:49;101355.42;;;4.85;100.00
51259;BME280;37327;54.254;18.504;2023-04-07T09:11:06;101350.41;;;4.92;100.00
51259;BME280;37327;54.254;18.504;2023-04-07T09:14:23;101354.06;;;5.02;100.00
51259;BME280;37327;54.254;18.504;2023-04-07T09:17:40;101360.24;;;5.14;100.00
51259;BME280;37327;54.254;18.504;2023-04-07T09:21:00;101363.73;;;5.26;100.00
51259;BME280;37327;54.254;18.504;2023-04-07T09:24:26;101362.32;;;5.43;100.00
51259;BME280;37327;54.254;18.504;2023-04-07T09:27:57;101360.45;;;5.54;100.00
51259;BME280;37327;54.254;18.504;2023-04-07T09:31:15;101361.59;;;5.73;100.00
51259;BME280;37327;54.254;18.504;2023-04-07T09:34:34;101357.27;;;5.82;100.00
51259;BME280;37327;54.254;18.504;2023-04-07T09:38:04;101347.84;;;5.99;100.00
51259;BME280;37327;54.254;18.504;2023-04-07T09:41:22;101348.74;;;6.09;100.00
51259;BME280;37327;54.254;18.504;2023-04-07T09:44:39;101333.63;;;6.29;100.00
51259;BME280;37327;54.254;18.504;2023-04-07T09:47:58;101336.24;;;6.50;100.00
51259;BME280;37327;54.254;18.504;2023-04-07T09:51:16;101335.18;;;6.62;100.00
51259;BME280;37327;54.254;18.504;2023-04-07T09:54:39;101334.53;;;6.80;100.00
51259;BME280;37327;54.254;18.504;2023-04-07T09:57:57;101340.48;;;6.93;100.00
51259;BME280;37327;54.254;18.504;2023-04-07T10:01:16;101339.68;;;7.12;100.00
51259;BME280;37327;54.254;18.504;2023-04-07T10:04:33;101336.17;;;7.41;100.00
51259;BME280;37327;54.254;18.504;2023-04-07T10:07:52;101335.60;;;7.66;100.00
51259;BME280;37327;54.254;18.504;2023-04-07T10:11:10;101335.02;;;7.82;100.00
51259;BME280;37327;54.254;18.504;2023-04-07T10:14:30;101330.30;;;8.04;100.00
51259;BME280;37327;54.254;18.504;2023-04-07T10:17:48;101334.80;;;8.23;100.00
51259;BME280;37327;54.254;18.504;2023-04-07T10:21:07;101331.62;;;8.47;100.00
51259;BME280;37327;54.254;18.504;2023-04-07T10:28:06;101322.38;;;8.59;100.00
51259;BME280;37327;54.254;18.504;2023-04-07T10:31:24;101321.20;;;8.89;100.00
51259;BME280;37327;54.254;18.504;2023-04-07T10:38:13;101312.71;;;9.12;100.00
51259;BME280;37327;54.254;18.504;2023-04-07T10:41:40;101320.41;;;9.25;100.00
51259;BME280;37327;54.254;18.504;2023-04-07T10:44:58;101307.10;;;9.41;99.89
51259;BME280;37327;54.254;18.504;2023-04-07T10:48:18;101308.31;;;9.65;98.61
51259;BME280;37327;54.254;18.504;2023-04-07T10:51:37;101306.03;;;9.78;97.33
51259;BME280;37327;54.254;18.504;2023-04-07T10:58:29;101299.70;;;9.87;96.50
51259;BME280;37327;54.254;18.504;2023-04-07T11:01:49;101298.95;;;10.03;95.57
51259;BME280;37327;54.254;18.504;2023-04-07T11:08:45;101296.73;;;10.51;93.26
51259;BME280;37327;54.254;18.504;2023-04-07T11:12:03;101298.80;;;10.65;90.69
51259;BME280;37327;54.254;18.504;2023-04-07T11:15:23;101302.75;;;10.87;90.25
51259;BME280;37327;54.254;18.504;2023-04-07T11:18:41;101304.49;;;11.05;88.51
51259;BME280;37327;54.254;18.504;2023-04-07T11:25:28;101307.72;;;11.17;83.44
51259;BME280;37327;54.254;18.504;2023-04-07T11:28:48;101304.19;;;11.24;83.61
51259;BME280;37327;54.254;18.504;2023-04-07T11:32:08;101302.36;;;11.41;81.72
51259;BME280;37327;54.254;18.504;2023-04-07T11:35:25;101297.30;;;11.46;81.45
51259;BME280;37327;54.254;18.504;2023-04-07T11:38:43;101294.41;;;11.32;79.73
51259;BME280;37327;54.254;18.504;2023-04-07T11:42:02;101294.23;;;11.33;80.21
51259;BME280;37327;54.254;18.504;2023-04-07T11:45:19;101291.50;;;11.17;78.73
51259;BME280;37327;54.254;18.504;2023-04-07T11:48:39;101292.53;;;11.08;78.65
51259;BME280;37327;54.254;18.504;2023-04-07T11:51:59;101287.80;;;11.18;78.14
51259;BME280;37327;54.254;18.504;2023-04-07T11:55:30;101281.05;;;11.30;79.09
51259;BME280;37327;54.254;18.504;2023-04-07T11:59:05;101291.38;;;11.51;77.90
51259;BME280;37327;54.254;18.504;2023-04-07T12:02:32;101285.28;;;11.82;76.49
51259;BME280;37327;54.254;18.504;2023-04-07T12:05:50;101282.73;;;11.97;75.10
51259;BME280;37327;54.254;18.504;2023-04-07T12:09:09;101284.77;;;11.95;73.88
51259;BME280;37327;54.254;18.504;2023-04-07T12:12:32;101283.42;;;11.91;73.34
51259;BME280;37327;54.254;18.504;2023-04-07T12:15:49;101290.55;;;11.92;73.29
51259;BME280;37327;54.254;18.504;2023-04-07T12:19:07;101281.07;;;11.96;72.42
51259;BME280;37327;54.254;18.504;2023-04-07T12:22:24;101290.19;;;11.95;71.81
51259;BME280;37327;54.254;18.504;2023-04-07T12:25:41;101294.93;;;11.93;71.01
51259;BME280;37327;54.254;18.504;2023-04-07T12:28:59;101292.70;;;11.88;69.98
51259;BME280;37327;54.254;18.504;2023-04-07T12:32:21;101300.65;;;11.81;70.59
51259;BME280;37327;54.254;18.504;2023-04-07T12:35:38;101304.23;;;11.74;70.06
51259;BME280;37327;54.254;18.504;2023-04-07T12:38:56;101306.41;;;11.45;69.55
51259;BME280;37327;54.254;18.504;2023-04-07T12:42:14;101312.34;;;11.33;70.77
51259;BME280;37327;54.254;18.504;2023-04-07T12:45:32;101323.31;;;11.31;71.43
51259;BME280;37327;54.254;18.504;2023-04-07T12:48:49;101309.11;;;11.29;71.53
51259;BME280;37327;54.254;18.504;2023-04-07T12:52:06;101301.68;;;11.48;72.32
51259;BME280;37327;54.254;18.504;2023-04-07T12:55:24;101307.09;;;11.39;70.02
51259;BME280;37327;54.254;18.504;2023-04-07T12:58:41;101307.58;;;11.26;70.19
51259;BME280;37327;54.254;18.504;2023-04-07T13:01:59;101313.17;;;11.25;71.17
51259;BME280;37327;54.254;18.504;2023-04-07T13:05:17;101307.40;;;11.28;70.71
51259;BME280;37327;54.254;18.504;2023-04-07T13:08:35;101311.62;;;11.22;69.75
51259;BME280;37327;54.254;18.504;2023-04-07T13:11:53;101317.70;;;11.24;70.20
51259;BME280;37327;54.254;18.504;2023-04-07T13:15:10;101320.09;;;11.28;70.57
51259;BME280;37327;54.254;18.504;2023-04-07T13:18:27;101319.92;;;11.29;69.92
51259;BME280;37327;54.254;18.504;2023-04-07T13:21:44;101323.94;;;11.17;69.63
51259;BME280;37327;54.254;18.504;2023-04-07T13:25:03;101325.44;;;11.11;70.33
51259;BME280;37327;54.254;18.504;2023-04-07T13:28:20;101317.82;;;10.98;69.82
51259;BME280;37327;54.254;18.504;2023-04-07T13:31:38;101318.47;;;10.84;69.99
51259;BME280;37327;54.254;18.504;2023-04-07T13:34:55;101313.41;;;10.89;71.13
51259;BME280;37327;54.254;18.504;2023-04-07T13:38:13;101321.85;;;10.86;70.72
51259;BME280;37327;54.254;18.504;2023-04-07T13:41:31;101311.88;;;10.86;71.22
51259;BME280;37327;54.254;18.504;2023-04-07T13:44:49;101310.52;;;10.82;70.41
51259;BME280;37327;54.254;18.504;2023-04-07T13:48:08;101316.39;;;10.78;70.27
51259;BME280;37327;54.254;18.504;2023-04-07T13:51:25;101322.70;;;10.52;69.65
51259;BME280;37327;54.254;18.504;2023-04-07T13:54:44;101317.85;;;10.30;70.15
51259;BME280;37327;54.254;18.504;2023-04-07T13:58:02;101318.23;;;10.08;71.11
51259;BME280;37327;54.254;18.504;2023-04-07T14:01:19;101317.79;;;9.95;71.47
51259;BME280;37327;54.254;18.504;2023-04-07T14:04:37;101314.21;;;9.86;71.79
51259;BME280;37327;54.254;18.504;2023-04-07T14:07:54;101320.23;;;9.80;71.79
51259;BME280;37327;54.254;18.504;2023-04-07T14:11:11;101316.45;;;9.73;72.10
51259;BME280;37327;54.254;18.504;2023-04-07T14:14:32;101310.91;;;9.75;72.29
51259;BME280;37327;54.254;18.504;2023-04-07T14:17:49;101311.76;;;9.75;72.25
51259;BME280;37327;54.254;18.504;2023-04-07T14:21:07;101309.11;;;9.83;72.68
51259;BME280;37327;54.254;18.504;2023-04-07T14:24:25;101306.52;;;10.00;72.53
51259;BME280;37327;54.254;18.504;2023-04-07T14:28:17;101316.02;;;10.04;72.06
51259;BME280;37327;54.254;18.504;2023-04-07T14:31:34;101318.71;;;10.04;71.92
51259;BME280;37327;54.254;18.504;2023-04-07T14:34:52;101313.31;;;10.04;71.95
51259;BME280;37327;54.254;18.504;2023-04-07T14:38:10;101303.10;;;10.16;72.31
51259;BME280;37327;54.254;18.504;2023-04-07T14:41:27;101308.89;;;10.29;72.32
51259;BME280;37327;54.254;18.504;2023-04-07T14:44:46;101308.05;;;10.28;71.93
51259;BME280;37327;54.254;18.504;2023-04-07T14:48:03;101306.38;;;10.27;71.82
51259;BME280;37327;54.254;18.504;2023-04-07T14:51:21;101300.59;;;10.22;72.27
51259;BME280;37327;54.254;18.504;2023-04-07T14:54:38;101306.38;;;10.27;72.82
51259;BME280;37327;54.254;18.504;2023-04-07T14:57:57;101304.91;;;10.33;72.41
51259;BME280;37327;54.254;18.504;2023-04-07T15:01:14;101300.08;;;10.45;73.46
51259;BME280;37327;54.254;18.504;2023-04-07T15:04:31;101303.41;;;10.39;72.40
51259;BME280;37327;54.254;18.504;2023-04-07T15:07:48;101305.76;;;10.34;72.61
51259;BME280;37327;54.254;18.504;2023-04-07T15:11:09;101302.98;;;10.25;72.95
51259;BME280;37327;54.254;18.504;2023-04-07T15:14:27;101300.70;;;10.13;73.39
51259;BME280;37327;54.254;18.504;2023-04-07T15:17:44;101300.56;;;10.14;73.98
51259;BME280;37327;54.254;18.504;2023-04-07T15:21:01;101303.98;;;10.24;74.96
51259;BME280;37327;54.254;18.504;2023-04-07T15:24:19;101297.40;;;10.27;74.21
51259;BME280;37327;54.254;18.504;2023-04-07T15:27:37;101289.30;;;10.27;74.01
51259;BME280;37327;54.254;18.504;2023-04-07T15:30:55;101299.52;;;10.33;73.99
51259;BME280;37327;54.254;18.504;2023-04-07T15:34:12;101288.75;;;10.41;74.02
51259;BME280;37327;54.254;18.504;2023-04-07T15:37:30;101289.75;;;10.40;73.66
51259;BME280;37327;54.254;18.504;2023-04-07T15:40:47;101282.83;;;10.38;73.44
51259;BME280;37327;54.254;18.504;2023-04-07T15:44:05;101289.75;;;10.40;73.44
51259;BME280;37327;54.254;18.504;2023-04-07T15:47:22;101283.88;;;10.45;73.67
51259;BME280;37327;54.254;18.504;2023-04-07T15:50:40;101289.97;;;10.47;74.00
51259;BME280;37327;54.254;18.504;2023-04-07T15:53:58;101285.90;;;10.43;73.42
51259;BME280;37327;54.254;18.504;2023-04-07T15:57:16;101284.04;;;10.43;73.92
51259;BME280;37327;54.254;18.504;2023-04-07T16:00:36;101276.34;;;10.57;73.88
51259;BME280;37327;54.254;18.504;2023-04-07T16:03:54;101281.60;;;10.66;74.09
51259;BME280;37327;54.254;18.504;2023-04-07T16:07:11;101280.59;;;10.76;74.12
51259;BME280;37327;54.254;18.504;2023-04-07T16:10:29;101278.63;;;10.86;73.74
51259;BME280;37327;54.254;18.504;2023-04-07T16:13:46;101285.70;;;10.87;72.93
51259;BME280;37327;54.254;18.504;2023-04-07T16:17:04;101287.07;;;10.91;73.35
51259;BME280;37327;54.254;18.504;2023-04-07T16:20:22;101282.02;;;10.96;72.90
51259;BME280;37327;54.254;18.504;2023-04-07T16:23:39;101285.77;;;11.03;73.37
51259;BME280;37327;54.254;18.504;2023-04-07T16:26:56;101292.17;;;11.11;72.77
51259;BME280;37327;54.254;18.504;2023-04-07T16:30:17;101298.25;;;11.04;72.00
51259;BME280;37327;54.254;18.504;2023-04-07T16:33:34;101294.34;;;10.99;72.36
51259;BME280;37327;54.254;18.504;2023-04-07T16:36:52;101295.16;;;10.91;72.29
51259;BME280;37327;54.254;18.504;2023-04-07T16:40:10;101293.47;;;10.82;72.29
51259;BME280;37327;54.254;18.504;2023-04-07T16:43:27;101292.76;;;10.80;72.84
51259;BME280;37327;54.254;18.504;2023-04-07T16:46:46;101298.17;;;10.80;72.95
51259;BME280;37327;54.254;18.504;2023-04-07T16:50:04;101299.20;;;10.79;72.70
51259;BME280;37327;54.254;18.504;2023-04-07T16:53:21;101302.58;;;10.81;73.25
51259;BME280;37327;54.254;18.504;2023-04-07T16:56:38;101306.63;;;10.85;73.72
51259;BME280;37327;54.254;18.504;2023-04-07T16:59:57;101311.73;;;10.88;73.56
51259;BME280;37327;54.254;18.504;2023-04-07T17:03:15;101312.88;;;10.85;74.00
51259;BME280;37327;54.254;18.504;2023-04-07T17:06:32;101316.23;;;10.79;73.72
51259;BME280;37327;54.254;18.504;2023-04-07T17:09:49;101320.77;;;10.71;73.57
51259;BME280;37327;54.254;18.504;2023-04-07T17:13:07;101326.47;;;10.59;73.55
51259;BME280;37327;54.254;18.504;2023-04-07T17:16:24;101327.11;;;10.53;73.93
51259;BME280;37327;54.254;18.504;2023-04-07T17:19:41;101340.05;;;10.41;73.90
51259;BME280;37327;54.254;18.504;2023-04-07T17:22:59;101339.82;;;10.35;74.57
51259;BME280;37327;54.254;18.504;2023-04-07T17:26:16;101341.27;;;10.29;74.99
51259;BME280;37327;54.254;18.504;2023-04-07T17:29:33;101353.25;;;10.26;75.40
51259;BME280;37327;54.254;18.504;2023-04-07T17:32:51;101357.65;;;10.27;75.94